sensor_id;sensor_type;location;lat;lon;timestamp;P1;durP1;ratioP1;P2;durP2;ratioP2
22768;SDS011;13001;51.968;5.918;2023-02-11T00:01:29;213.97;;;198.97;;
22768;SDS011;13001;51.968;5.918;2023-02-11T00:03:57;195.13;;;182.00;;
22768;SDS011;13001;51.968;5.918;2023-02-11T00:06:25;200.73;;;186.93;;
22768;SDS011;13001;51.968;5.918;2023-02-11T00:08:53;211.03;;;196.10;;
22768;SDS011;13001;51.968;5.918;2023-02-11T00:11:21;208.73;;;194.17;;
22768;SDS011;13001;51.968;5.918;2023-02-11T00:13:50;207.30;;;193.00;;
22768;SDS011;13001;51.968;5.918;2023-02-11T00:16:18;210.07;;;195.53;;
22768;SDS011;13001;51.968;5.918;2023-02-11T00:18:46;210.17;;;195.57;;
22768;SDS011;13001;51.968;5.918;2023-02-11T00:21:14;207.77;;;193.40;;
22768;SDS011;13001;51.968;5.918;2023-02-11T00:23:42;203.63;;;189.30;;
22768;SDS011;13001;51.968;5.918;2023-02-11T00:26:11;204.23;;;190.33;;
22768;SDS011;13001;51.968;5.918;2023-02-11T00:28:39;199.67;;;186.00;;
22768;SDS011;13001;51.968;5.918;2023-02-11T00:31:06;206.03;;;191.77;;
22768;SDS011;13001;51.968;5.918;2023-02-11T00:33:33;203.27;;;188.40;;
22768;SDS011;13001;51.968;5.918;2023-02-11T00:36:07;199.83;;;185.77;;
22768;SDS011;13001;51.968;5.918;2023-02-11T00:38:35;197.83;;;184.30;;
22768;SDS011;13001;51.968;5.918;2023-02-11T00:41:02;199.77;;;185.97;;
22768;SDS011;13001;51.968;5.918;2023-02-11T00:43:30;199.17;;;185.03;;
22768;SDS011;13001;51.968;5.918;2023-02-11T00:45:57;206.60;;;192.13;;
22768;SDS011;13001;51.968;5.918;2023-02-11T00:48:25;200.23;;;186.03;;
22768;SDS011;13001;51.968;5.918;2023-02-11T00:50:52;204.83;;;190.33;;
22768;SDS011;13001;51.968;5.918;2023-02-11T00:53:19;197.97;;;184.23;;
22768;SDS011;13001;51.968;5.918;2023-02-11T00:55:47;198.93;;;185.13;;
22768;SDS011;13001;51.968;5.918;2023-02-11T00:58:14;192.67;;;179.53;;
22768;SDS011;13001;51.968;5.918;2023-02-11T01:00:41;206.93;;;192.80;;
22768;SDS011;13001;51.968;5.918;2023-02-11T01:03:08;207.97;;;193.70;;
22768;SDS011;13001;51.968;5.918;2023-02-11T01:05:36;198.23;;;184.60;;
22768;SDS011;13001;51.968;5.918;2023-02-11T01:08:03;199.40;;;185.77;;
22768;SDS011;13001;51.968;5.918;2023-02-11T01:10:30;201.57;;;187.13;;
22768;SDS011;13001;51.968;5.918;2023-02-11T01:12:58;198.70;;;184.77;;
22768;SDS011;13001;51.968;5.918;2023-02-11T01:15:26;203.80;;;189.13;;
22768;SDS011;13001;51.968;5.918;2023-02-11T01:17:54;193.70;;;180.17;;
22768;SDS011;13001;51.968;5.918;2023-02-11T01:20:23;203.87;;;189.53;;
22768;SDS011;13001;51.968;5.918;2023-02-11T01:22:50;197.37;;;182.70;;
22768;SDS011;13001;51.968;5.918;2023-02-11T01:25:17;205.07;;;190.73;;
22768;SDS011;13001;51.968;5.918;2023-02-11T01:27:45;197.77;;;183.30;;
22768;SDS011;13001;51.968;5.918;2023-02-11T01:30:12;209.10;;;194.63;;
22768;SDS011;13001;51.968;5.918;2023-02-11T01:32:40;199.20;;;184.90;;
22768;SDS011;13001;51.968;5.918;2023-02-11T01:35:07;194.07;;;180.60;;
22768;SDS011;13001;51.968;5.918;2023-02-11T01:37:34;200.70;;;186.47;;
22768;SDS011;13001;51.968;5.918;2023-02-11T01:40:03;210.40;;;195.67;;
22768;SDS011;13001;51.968;5.918;2023-02-11T01:42:31;196.20;;;183.13;;
22768;SDS011;13001;51.968;5.918;2023-02-11T01:45:01;212.60;;;197.83;;
22768;SDS011;13001;51.968;5.918;2023-02-11T01:47:27;204.40;;;190.00;;
22768;SDS011;13001;51.968;5.918;2023-02-11T01:49:56;212.77;;;198.20;;
22768;SDS011;13001;51.968;5.918;2023-02-11T01:52:31;200.70;;;186.77;;
22768;SDS011;13001;51.968;5.918;2023-02-11T01:54:56;205.63;;;190.63;;
22768;SDS011;13001;51.968;5.918;2023-02-11T01:57:42;212.20;;;197.63;;
22768;SDS011;13001;51.968;5.918;2023-02-11T02:00:23;218.10;;;202.83;;
22768;SDS011;13001;51.968;5.918;2023-02-11T02:02:51;205.60;;;191.17;;
22768;SDS011;13001;51.968;5.918;2023-02-11T02:07:53;215.07;;;199.50;;
22768;SDS011;13001;51.968;5.918;2023-02-11T02:10:20;209.77;;;195.73;;
22768;SDS011;13001;51.968;5.918;2023-02-11T02:12:47;207.00;;;192.33;;
22768;SDS011;13001;51.968;5.918;2023-02-11T02:15:23;215.40;;;200.37;;
22768;SDS011;13001;51.968;5.918;2023-02-11T02:17:50;213.13;;;197.93;;
22768;SDS011;13001;51.968;5.918;2023-02-11T02:20:29;214.87;;;200.27;;
22768;SDS011;13001;51.968;5.918;2023-02-11T02:23:09;198.50;;;185.00;;
22768;SDS011;13001;51.968;5.918;2023-02-11T02:25:35;214.80;;;200.23;;
22768;SDS011;13001;51.968;5.918;2023-02-11T02:30:35;209.40;;;194.50;;
22768;SDS011;13001;51.968;5.918;2023-02-11T02:35:42;214.53;;;200.10;;
22768;SDS011;13001;51.968;5.918;2023-02-11T02:38:20;214.63;;;199.57;;
22768;SDS011;13001;51.968;5.918;2023-02-11T02:40:47;214.03;;;199.60;;
22768;SDS011;13001;51.968;5.918;2023-02-11T02:43:15;222.70;;;206.97;;
22768;SDS011;13001;51.968;5.918;2023-02-11T02:45:43;216.80;;;202.07;;
22768;SDS011;13001;51.968;5.918;2023-02-11T02:48:26;216.03;;;201.17;;
22768;SDS011;13001;51.968;5.918;2023-02-11T02:51:15;213.17;;;198.43;;
22768;SDS011;13001;51.968;5.918;2023-02-11T02:53:49;212.87;;;197.97;;
22768;SDS011;13001;51.968;5.918;2023-02-11T03:01:34;220.73;;;204.97;;
22768;SDS011;13001;51.968;5.918;2023-02-11T03:04:00;225.10;;;209.43;;
22768;SDS011;13001;51.968;5.918;2023-02-11T03:06:35;220.47;;;205.00;;
22768;SDS011;13001;51.968;5.918;2023-02-11T03:09:03;220.53;;;205.73;;
22768;SDS011;13001;51.968;5.918;2023-02-11T03:11:30;220.77;;;205.30;;
22768;SDS011;13001;51.968;5.918;2023-02-11T03:14:04;220.57;;;204.57;;
22768;SDS011;13001;51.968;5.918;2023-02-11T03:16:32;216.47;;;200.87;;
22768;SDS011;13001;51.968;5.918;2023-02-11T03:19:02;223.50;;;207.40;;
22768;SDS011;13001;51.968;5.918;2023-02-11T03:21:30;214.43;;;199.13;;
22768;SDS011;13001;51.968;5.918;2023-02-11T03:23:59;212.63;;;196.63;;
22768;SDS011;13001;51.968;5.918;2023-02-11T03:26:29;226.43;;;209.97;;
22768;SDS011;13001;51.968;5.918;2023-02-11T03:29:01;209.80;;;194.90;;
22768;SDS011;13001;51.968;5.918;2023-02-11T03:36:50;221.77;;;205.87;;
22768;SDS011;13001;51.968;5.918;2023-02-11T03:39:23;222.13;;;205.90;;
22768;SDS011;13001;51.968;5.918;2023-02-11T03:41:46;219.33;;;203.50;;
22768;SDS011;13001;51.968;5.918;2023-02-11T03:44:14;229.00;;;212.80;;
22768;SDS011;13001;51.968;5.918;2023-02-11T03:46:43;216.80;;;200.90;;
22768;SDS011;13001;51.968;5.918;2023-02-11T03:49:11;216.27;;;200.60;;
22768;SDS011;13001;51.968;5.918;2023-02-11T03:51:39;212.57;;;197.57;;
22768;SDS011;13001;51.968;5.918;2023-02-11T03:54:09;218.93;;;203.00;;
22768;SDS011;13001;51.968;5.918;2023-02-11T03:56:37;223.33;;;206.90;;
22768;SDS011;13001;51.968;5.918;2023-02-11T03:59:04;213.97;;;198.60;;
22768;SDS011;13001;51.968;5.918;2023-02-11T04:01:33;216.00;;;199.77;;
22768;SDS011;13001;51.968;5.918;2023-02-11T04:04:00;221.97;;;206.00;;
22768;SDS011;13001;51.968;5.918;2023-02-11T04:06:28;216.57;;;200.87;;
22768;SDS011;13001;51.968;5.918;2023-02-11T04:08:55;222.13;;;205.27;;
22768;SDS011;13001;51.968;5.918;2023-02-11T04:11:22;219.27;;;203.37;;
22768;SDS011;13001;51.968;5.918;2023-02-11T04:13:49;216.80;;;200.80;;
22768;SDS011;13001;51.968;5.918;2023-02-11T04:16:17;229.60;;;212.83;;
22768;SDS011;13001;51.968;5.918;2023-02-11T04:18:44;206.27;;;191.00;;
22768;SDS011;13001;51.968;5.918;2023-02-11T04:21:11;211.53;;;196.37;;
22768;SDS011;13001;51.968;5.918;2023-02-11T04:23:38;227.40;;;211.10;;
22768;SDS011;13001;51.968;5.918;2023-02-11T04:26:06;219.53;;;203.37;;
22768;SDS011;13001;51.968;5.918;2023-02-11T04:28:33;218.33;;;202.10;;
22768;SDS011;13001;51.968;5.918;2023-02-11T04:31:01;205.97;;;190.30;;
22768;SDS011;13001;51.968;5.918;2023-02-11T04:33:28;212.90;;;197.50;;
22768;SDS011;13001;51.968;5.918;2023-02-11T04:35:55;216.40;;;200.87;;
22768;SDS011;13001;51.968;5.918;2023-02-11T04:38:23;205.37;;;190.53;;
22768;SDS011;13001;51.968;5.918;2023-02-11T04:40:50;191.27;;;177.20;;
22768;SDS011;13001;51.968;5.918;2023-02-11T04:43:17;211.37;;;196.43;;
22768;SDS011;13001;51.968;5.918;2023-02-11T04:45:44;225.97;;;209.77;;
22768;SDS011;13001;51.968;5.918;2023-02-11T04:48:12;198.77;;;184.60;;
22768;SDS011;13001;51.968;5.918;2023-02-11T04:50:40;214.13;;;199.00;;
22768;SDS011;13001;51.968;5.918;2023-02-11T04:53:07;207.27;;;192.40;;
22768;SDS011;13001;51.968;5.918;2023-02-11T04:55:34;221.67;;;205.10;;
22768;SDS011;13001;51.968;5.918;2023-02-11T04:58:01;224.33;;;208.03;;
22768;SDS011;13001;51.968;5.918;2023-02-11T05:00:29;214.10;;;198.73;;
22768;SDS011;13001;51.968;5.918;2023-02-11T05:02:56;238.23;;;220.70;;
22768;SDS011;13001;51.968;5.918;2023-02-11T05:05:23;217.03;;;201.57;;
22768;SDS011;13001;51.968;5.918;2023-02-11T05:07:50;217.47;;;202.03;;
22768;SDS011;13001;51.968;5.918;2023-02-11T05:10:18;212.27;;;196.97;;
22768;SDS011;13001;51.968;5.918;2023-02-11T05:12:46;189.60;;;176.20;;
22768;SDS011;13001;51.968;5.918;2023-02-11T05:15:14;210.77;;;195.47;;
22768;SDS011;13001;51.968;5.918;2023-02-11T05:17:41;224.97;;;207.77;;
22768;SDS011;13001;51.968;5.918;2023-02-11T05:20:09;227.07;;;211.07;;
22768;SDS011;13001;51.968;5.918;2023-02-11T05:22:38;224.50;;;208.83;;
22768;SDS011;13001;51.968;5.918;2023-02-11T05:25:05;223.73;;;207.73;;
22768;SDS011;13001;51.968;5.918;2023-02-11T05:27:32;202.63;;;188.33;;
22768;SDS011;13001;51.968;5.918;2023-02-11T05:30:01;211.53;;;196.40;;
22768;SDS011;13001;51.968;5.918;2023-02-11T05:32:28;224.10;;;208.43;;
22768;SDS011;13001;51.968;5.918;2023-02-11T05:34:56;220.30;;;205.47;;
22768;SDS011;13001;51.968;5.918;2023-02-11T05:37:23;215.70;;;200.20;;
22768;SDS011;13001;51.968;5.918;2023-02-11T05:39:50;212.97;;;197.80;;
22768;SDS011;13001;51.968;5.918;2023-02-11T05:42:17;218.70;;;203.00;;
22768;SDS011;13001;51.968;5.918;2023-02-11T05:44:45;221.07;;;204.97;;
22768;SDS011;13001;51.968;5.918;2023-02-11T05:47:12;210.63;;;195.80;;
22768;SDS011;13001;51.968;5.918;2023-02-11T05:49:39;220.90;;;204.90;;
22768;SDS011;13001;51.968;5.918;2023-02-11T05:52:07;219.23;;;203.40;;
22768;SDS011;13001;51.968;5.918;2023-02-11T05:54:34;206.50;;;192.13;;
22768;SDS011;13001;51.968;5.918;2023-02-11T05:57:01;220.03;;;204.63;;
22768;SDS011;13001;51.968;5.918;2023-02-11T05:59:28;210.30;;;194.83;;
22768;SDS011;13001;51.968;5.918;2023-02-11T06:01:56;206.47;;;191.80;;
22768;SDS011;13001;51.968;5.918;2023-02-11T06:04:23;219.23;;;203.77;;
22768;SDS011;13001;51.968;5.918;2023-02-11T06:06:50;226.57;;;210.67;;
22768;SDS011;13001;51.968;5.918;2023-02-11T06:12:04;218.90;;;203.57;;
22768;SDS011;13001;51.968;5.918;2023-02-11T06:14:32;227.90;;;211.97;;
22768;SDS011;13001;51.968;5.918;2023-02-11T06:17:00;233.33;;;216.67;;
22768;SDS011;13001;51.968;5.918;2023-02-11T06:19:27;247.60;;;229.93;;
22768;SDS011;13001;51.968;5.918;2023-02-11T06:21:55;242.40;;;225.20;;
22768;SDS011;13001;51.968;5.918;2023-02-11T06:24:22;219.37;;;204.17;;
22768;SDS011;13001;51.968;5.918;2023-02-11T06:26:49;226.30;;;210.33;;
22768;SDS011;13001;51.968;5.918;2023-02-11T06:29:17;242.17;;;225.80;;
22768;SDS011;13001;51.968;5.918;2023-02-11T06:31:44;232.90;;;216.23;;
22768;SDS011;13001;51.968;5.918;2023-02-11T06:34:11;239.57;;;222.47;;
22768;SDS011;13001;51.968;5.918;2023-02-11T06:36:39;241.87;;;225.30;;
22768;SDS011;13001;51.968;5.918;2023-02-11T06:39:06;239.53;;;223.03;;
22768;SDS011;13001;51.968;5.918;2023-02-11T06:41:34;240.30;;;223.47;;
22768;SDS011;13001;51.968;5.918;2023-02-11T06:44:01;215.80;;;200.50;;
22768;SDS011;13001;51.968;5.918;2023-02-11T06:46:28;240.30;;;223.93;;
22768;SDS011;13001;51.968;5.918;2023-02-11T06:48:55;232.63;;;216.23;;
22768;SDS011;13001;51.968;5.918;2023-02-11T06:51:23;235.43;;;218.87;;
22768;SDS011;13001;51.968;5.918;2023-02-11T06:53:50;244.70;;;227.13;;
22768;SDS011;13001;51.968;5.918;2023-02-11T06:56:18;224.03;;;207.97;;
22768;SDS011;13001;51.968;5.918;2023-02-11T06:58:46;239.67;;;222.87;;
22768;SDS011;13001;51.968;5.918;2023-02-11T07:01:14;248.33;;;229.63;;
22768;SDS011;13001;51.968;5.918;2023-02-11T07:03:42;243.60;;;226.50;;
22768;SDS011;13001;51.968;5.918;2023-02-11T07:06:11;235.93;;;218.57;;
22768;SDS011;13001;51.968;5.918;2023-02-11T07:08:39;229.53;;;212.63;;
22768;SDS011;13001;51.968;5.918;2023-02-11T07:11:09;217.50;;;201.43;;
22768;SDS011;13001;51.968;5.918;2023-02-11T07:13:36;233.50;;;216.97;;
22768;SDS011;13001;51.968;5.918;2023-02-11T07:16:05;230.27;;;213.23;;
22768;SDS011;13001;51.968;5.918;2023-02-11T07:18:32;214.10;;;198.70;;
22768;SDS011;13001;51.968;5.918;2023-02-11T07:21:04;230.17;;;213.33;;
22768;SDS011;13001;51.968;5.918;2023-02-11T07:23:28;207.23;;;191.37;;
22768;SDS011;13001;51.968;5.918;2023-02-11T07:26:02;219.23;;;203.70;;
22768;SDS011;13001;51.968;5.918;2023-02-11T07:28:30;230.87;;;213.60;;
22768;SDS011;13001;51.968;5.918;2023-02-11T07:30:57;229.97;;;213.63;;
22768;SDS011;13001;51.968;5.918;2023-02-11T07:33:24;218.13;;;201.90;;
22768;SDS011;13001;51.968;5.918;2023-02-11T07:35:52;226.50;;;210.13;;
22768;SDS011;13001;51.968;5.918;2023-02-11T07:38:19;216.33;;;200.43;;
22768;SDS011;13001;51.968;5.918;2023-02-11T07:40:46;219.80;;;203.90;;
22768;SDS011;13001;51.968;5.918;2023-02-11T07:43:13;225.90;;;208.93;;
22768;SDS011;13001;51.968;5.918;2023-02-11T07:45:41;222.70;;;206.70;;
22768;SDS011;13001;51.968;5.918;2023-02-11T07:48:08;217.90;;;202.57;;
22768;SDS011;13001;51.968;5.918;2023-02-11T07:50:35;227.37;;;209.90;;
22768;SDS011;13001;51.968;5.918;2023-02-11T07:53:02;220.53;;;204.97;;
22768;SDS011;13001;51.968;5.918;2023-02-11T07:55:32;213.03;;;196.60;;
22768;SDS011;13001;51.968;5.918;2023-02-11T07:57:59;211.30;;;195.17;;
22768;SDS011;13001;51.968;5.918;2023-02-11T08:00:26;204.07;;;188.77;;
22768;SDS011;13001;51.968;5.918;2023-02-11T08:02:55;217.17;;;200.93;;
22768;SDS011;13001;51.968;5.918;2023-02-11T08:05:22;221.40;;;205.43;;
22768;SDS011;13001;51.968;5.918;2023-02-11T08:07:51;224.10;;;207.77;;
22768;SDS011;13001;51.968;5.918;2023-02-11T08:10:18;214.00;;;197.77;;
22768;SDS011;13001;51.968;5.918;2023-02-11T08:12:46;222.30;;;205.20;;
22768;SDS011;13001;51.968;5.918;2023-02-11T08:15:13;221.47;;;203.43;;
22768;SDS011;13001;51.968;5.918;2023-02-11T08:17:40;215.23;;;198.87;;
22768;SDS011;13001;51.968;5.918;2023-02-11T08:20:07;215.27;;;199.20;;
22768;SDS011;13001;51.968;5.918;2023-02-11T08:22:35;221.67;;;205.43;;
22768;SDS011;13001;51.968;5.918;2023-02-11T08:25:02;222.37;;;205.63;;
22768;SDS011;13001;51.968;5.918;2023-02-11T08:27:29;220.83;;;204.30;;
22768;SDS011;13001;51.968;5.918;2023-02-11T08:29:57;219.67;;;203.17;;
22768;SDS011;13001;51.968;5.918;2023-02-11T08:32:25;218.57;;;201.60;;
22768;SDS011;13001;51.968;5.918;2023-02-11T08:34:53;225.50;;;207.43;;
22768;SDS011;13001;51.968;5.918;2023-02-11T08:37:20;230.47;;;212.47;;
22768;SDS011;13001;51.968;5.918;2023-02-11T08:39:48;218.43;;;201.63;;
22768;SDS011;13001;51.968;5.918;2023-02-11T08:42:15;227.47;;;210.00;;
22768;SDS011;13001;51.968;5.918;2023-02-11T08:44:42;233.87;;;215.40;;
22768;SDS011;13001;51.968;5.918;2023-02-11T08:47:09;221.30;;;204.63;;
22768;SDS011;13001;51.968;5.918;2023-02-11T08:49:37;225.13;;;208.17;;
22768;SDS011;13001;51.968;5.918;2023-02-11T08:52:06;228.73;;;211.00;;
22768;SDS011;13001;51.968;5.918;2023-02-11T08:54:34;224.97;;;208.13;;
22768;SDS011;13001;51.968;5.918;2023-02-11T08:57:01;232.57;;;214.07;;
22768;SDS011;13001;51.968;5.918;2023-02-11T08:59:28;224.53;;;207.80;;
22768;SDS011;13001;51.968;5.918;2023-02-11T09:01:56;219.87;;;203.43;;
22768;SDS011;13001;51.968;5.918;2023-02-11T09:04:24;225.57;;;208.07;;
22768;SDS011;13001;51.968;5.918;2023-02-11T09:06:51;220.60;;;202.97;;
22768;SDS011;13001;51.968;5.918;2023-02-11T09:09:18;214.90;;;198.43;;
22768;SDS011;13001;51.968;5.918;2023-02-11T09:11:46;208.63;;;191.87;;
22768;SDS011;13001;51.968;5.918;2023-02-11T09:14:16;201.40;;;185.23;;
22768;SDS011;13001;51.968;5.918;2023-02-11T09:16:44;225.40;;;207.30;;
22768;SDS011;13001;51.968;5.918;2023-02-11T09:19:11;205.30;;;188.50;;
22768;SDS011;13001;51.968;5.918;2023-02-11T09:21:38;220.33;;;201.30;;
22768;SDS011;13001;51.968;5.918;2023-02-11T09:24:05;222.23;;;203.67;;
22768;SDS011;13001;51.968;5.918;2023-02-11T09:26:33;197.30;;;181.70;;
22768;SDS011;13001;51.968;5.918;2023-02-11T09:29:01;212.97;;;195.53;;
22768;SDS011;13001;51.968;5.918;2023-02-11T09:31:29;205.53;;;188.77;;
22768;SDS011;13001;51.968;5.918;2023-02-11T09:33:58;200.47;;;184.30;;
22768;SDS011;13001;51.968;5.918;2023-02-11T09:36:27;209.30;;;192.17;;
22768;SDS011;13001;51.968;5.918;2023-02-11T09:38:55;200.17;;;183.47;;
22768;SDS011;13001;51.968;5.918;2023-02-11T09:41:48;198.73;;;182.87;;
22768;SDS011;13001;51.968;5.918;2023-02-11T09:44:21;198.93;;;182.63;;
22768;SDS011;13001;51.968;5.918;2023-02-11T09:46:40;200.63;;;184.27;;
22768;SDS011;13001;51.968;5.918;2023-02-11T09:49:14;204.87;;;188.20;;
22768;SDS011;13001;51.968;5.918;2023-02-11T09:51:38;196.97;;;181.47;;
22768;SDS011;13001;51.968;5.918;2023-02-11T09:54:14;182.70;;;168.03;;
22768;SDS011;13001;51.968;5.918;2023-02-11T09:56:37;191.20;;;175.97;;
22768;SDS011;13001;51.968;5.918;2023-02-11T09:59:05;193.70;;;178.37;;
22768;SDS011;13001;51.968;5.918;2023-02-11T10:01:44;200.30;;;184.13;;
22768;SDS011;13001;51.968;5.918;2023-02-11T10:06:52;195.57;;;180.73;;
22768;SDS011;13001;51.968;5.918;2023-02-11T10:17:10;214.53;;;198.77;;
22768;SDS011;13001;51.968;5.918;2023-02-11T10:22:31;203.30;;;187.53;;
22768;SDS011;13001;51.968;5.918;2023-02-11T10:24:57;203.57;;;188.37;;
22768;SDS011;13001;51.968;5.918;2023-02-11T10:27:25;200.33;;;185.30;;
22768;SDS011;13001;51.968;5.918;2023-02-11T10:29:52;208.33;;;193.43;;
22768;SDS011;13001;51.968;5.918;2023-02-11T10:32:28;206.10;;;190.83;;
22768;SDS011;13001;51.968;5.918;2023-02-11T10:34:57;210.03;;;194.93;;
22768;SDS011;13001;51.968;5.918;2023-02-11T10:37:24;209.90;;;194.37;;
22768;SDS011;13001;51.968;5.918;2023-02-11T10:39:51;227.83;;;210.87;;
22768;SDS011;13001;51.968;5.918;2023-02-11T10:42:18;202.70;;;188.07;;
22768;SDS011;13001;51.968;5.918;2023-02-11T10:44:54;216.70;;;200.60;;
22768;SDS011;13001;51.968;5.918;2023-02-11T10:47:19;200.40;;;185.50;;
22768;SDS011;13001;51.968;5.918;2023-02-11T10:49:46;189.10;;;175.07;;
22768;SDS011;13001;51.968;5.918;2023-02-11T10:52:18;178.13;;;164.83;;
22768;SDS011;13001;51.968;5.918;2023-02-11T10:54:55;172.47;;;159.27;;
22768;SDS011;13001;51.968;5.918;2023-02-11T10:57:25;166.13;;;154.27;;
22768;SDS011;13001;51.968;5.918;2023-02-11T10:59:55;175.63;;;162.33;;
22768;SDS011;13001;51.968;5.918;2023-02-11T11:02:22;166.47;;;154.17;;
22768;SDS011;13001;51.968;5.918;2023-02-11T11:04:50;156.23;;;144.87;;
22768;SDS011;13001;51.968;5.918;2023-02-11T11:07:20;155.30;;;143.10;;
22768;SDS011;13001;51.968;5.918;2023-02-11T11:09:55;155.00;;;143.50;;
22768;SDS011;13001;51.968;5.918;2023-02-11T11:15:02;371.60;;;345.77;;
22768;SDS011;13001;51.968;5.918;2023-02-11T11:17:28;452.75;;;420.00;;
22768;SDS011;13001;51.968;5.918;2023-02-11T11:22:41;159.83;;;147.73;;
22768;SDS011;13001;51.968;5.918;2023-02-11T11:25:19;160.90;;;148.83;;
22768;SDS011;13001;51.968;5.918;2023-02-11T11:27:39;153.37;;;141.83;;
22768;SDS011;13001;51.968;5.918;2023-02-11T11:30:10;160.07;;;148.23;;
22768;SDS011;13001;51.968;5.918;2023-02-11T11:32:35;161.50;;;149.43;;
22768;SDS011;13001;51.968;5.918;2023-02-11T11:35:06;155.43;;;143.50;;
22768;SDS011;13001;51.968;5.918;2023-02-11T11:37:36;163.73;;;151.50;;
22768;SDS011;13001;51.968;5.918;2023-02-11T11:42:36;162.43;;;150.37;;
22768;SDS011;13001;51.968;5.918;2023-02-11T11:50:39;170.67;;;157.53;;
22768;SDS011;13001;51.968;5.918;2023-02-11T11:53:09;183.83;;;169.53;;
22768;SDS011;13001;51.968;5.918;2023-02-11T11:55:35;174.70;;;161.43;;
22768;SDS011;13001;51.968;5.918;2023-02-11T11:58:03;156.03;;;144.20;;
22768;SDS011;13001;51.968;5.918;2023-02-11T12:00:36;166.17;;;153.80;;
22768;SDS011;13001;51.968;5.918;2023-02-11T12:08:22;196.70;;;181.97;;
22768;SDS011;13001;51.968;5.918;2023-02-11T12:16:06;183.87;;;169.97;;
22768;SDS011;13001;51.968;5.918;2023-02-11T12:18:35;202.67;;;188.10;;
22768;SDS011;13001;51.968;5.918;2023-02-11T12:21:14;197.77;;;183.50;;
22768;SDS011;13001;51.968;5.918;2023-02-11T12:23:44;205.60;;;190.73;;
22768;SDS011;13001;51.968;5.918;2023-02-11T12:31:16;228.90;;;212.13;;
22768;SDS011;13001;51.968;5.918;2023-02-11T12:39:07;242.43;;;225.07;;
22768;SDS011;13001;51.968;5.918;2023-02-11T12:44:27;272.67;;;253.70;;
22768;SDS011;13001;51.968;5.918;2023-02-11T12:47:01;331.30;;;308.20;;
22768;SDS011;13001;51.968;5.918;2023-02-11T12:49:30;315.93;;;293.93;;
22768;SDS011;13001;51.968;5.918;2023-02-11T12:54:24;338.20;;;315.00;;
22768;SDS011;13001;51.968;5.918;2023-02-11T12:56:54;324.20;;;302.07;;
22768;SDS011;13001;51.968;5.918;2023-02-11T12:59:26;335.63;;;313.37;;
22768;SDS011;13001;51.968;5.918;2023-02-11T13:01:49;345.10;;;321.60;;
22768;SDS011;13001;51.968;5.918;2023-02-11T13:04:34;327.13;;;304.67;;
22768;SDS011;13001;51.968;5.918;2023-02-11T13:07:03;358.37;;;334.03;;
22768;SDS011;13001;51.968;5.918;2023-02-11T13:09:34;333.17;;;310.63;;
22768;SDS011;13001;51.968;5.918;2023-02-11T13:12:01;338.67;;;315.43;;
22768;SDS011;13001;51.968;5.918;2023-02-11T13:14:36;348.57;;;324.67;;
22768;SDS011;13001;51.968;5.918;2023-02-11T13:17:00;314.20;;;291.87;;
22768;SDS011;13001;51.968;5.918;2023-02-11T13:19:40;281.87;;;262.30;;
22768;SDS011;13001;51.968;5.918;2023-02-11T13:22:10;298.70;;;277.80;;
22768;SDS011;13001;51.968;5.918;2023-02-11T13:27:12;226.70;;;210.73;;
22768;SDS011;13001;51.968;5.918;2023-02-11T13:30:02;230.93;;;214.57;;
22768;SDS011;13001;51.968;5.918;2023-02-11T13:32:23;259.93;;;241.30;;
22768;SDS011;13001;51.968;5.918;2023-02-11T13:37:27;217.90;;;202.03;;
22768;SDS011;13001;51.968;5.918;2023-02-11T13:39:55;226.30;;;210.40;;
22768;SDS011;13001;51.968;5.918;2023-02-11T13:42:22;198.17;;;184.23;;
22768;SDS011;13001;51.968;5.918;2023-02-11T13:44:49;479.95;;;445.82;;
22768;SDS011;13001;51.968;5.918;2023-02-11T13:47:30;479.60;;;445.25;;
22768;SDS011;13001;51.968;5.918;2023-02-11T13:49:58;453.57;;;421.43;;
22768;SDS011;13001;51.968;5.918;2023-02-11T13:52:30;495.52;;;460.65;;
22768;SDS011;13001;51.968;5.918;2023-02-11T13:55:08;513.70;;;476.82;;
22768;SDS011;13001;51.968;5.918;2023-02-11T13:57:34;518.87;;;481.70;;
22768;SDS011;13001;51.968;5.918;2023-02-11T14:00:05;512.98;;;476.18;;
22768;SDS011;13001;51.968;5.918;2023-02-11T14:02:32;527.97;;;489.43;;
22768;SDS011;13001;51.968;5.918;2023-02-11T14:08:23;514.02;;;475.07;;
22768;SDS011;13001;51.968;5.918;2023-02-11T14:11:10;500.77;;;462.38;;
22768;SDS011;13001;51.968;5.918;2023-02-11T14:16:21;471.05;;;435.02;;
22768;SDS011;13001;51.968;5.918;2023-02-11T14:23:44;483.20;;;445.82;;
22768;SDS011;13001;51.968;5.918;2023-02-11T14:31:20;462.90;;;427.17;;
22768;SDS011;13001;51.968;5.918;2023-02-11T14:33:49;472.60;;;436.60;;
22768;SDS011;13001;51.968;5.918;2023-02-11T14:41:40;456.40;;;421.83;;
22768;SDS011;13001;51.968;5.918;2023-02-11T14:44:14;440.00;;;407.02;;
22768;SDS011;13001;51.968;5.918;2023-02-11T14:46:37;444.13;;;411.12;;
22768;SDS011;13001;51.968;5.918;2023-02-11T14:49:04;430.33;;;399.27;;
22768;SDS011;13001;51.968;5.918;2023-02-11T14:51:38;419.05;;;389.52;;
22768;SDS011;13001;51.968;5.918;2023-02-11T14:54:11;435.23;;;403.82;;
22768;SDS011;13001;51.968;5.918;2023-02-11T14:56:37;436.38;;;404.68;;
22768;SDS011;13001;51.968;5.918;2023-02-11T14:59:20;435.07;;;403.77;;
22768;SDS011;13001;51.968;5.918;2023-02-11T15:01:44;454.77;;;421.27;;
22768;SDS011;13001;51.968;5.918;2023-02-11T15:04:24;445.45;;;412.68;;
22768;SDS011;13001;51.968;5.918;2023-02-11T15:06:49;439.00;;;405.60;;
22768;SDS011;13001;51.968;5.918;2023-02-11T15:09:20;455.67;;;421.22;;
22768;SDS011;13001;51.968;5.918;2023-02-11T15:11:52;475.38;;;439.78;;
22768;SDS011;13001;51.968;5.918;2023-02-11T15:14:22;454.60;;;419.75;;
22768;SDS011;13001;51.968;5.918;2023-02-11T15:16:49;467.55;;;431.87;;
22768;SDS011;13001;51.968;5.918;2023-02-11T15:19:22;469.13;;;433.25;;
22768;SDS011;13001;51.968;5.918;2023-02-11T15:21:50;463.15;;;427.40;;
22768;SDS011;13001;51.968;5.918;2023-02-11T15:24:23;455.13;;;420.38;;
22768;SDS011;13001;51.968;5.918;2023-02-11T15:27:08;452.65;;;418.17;;
22768;SDS011;13001;51.968;5.918;2023-02-11T15:29:43;470.70;;;434.13;;
22768;SDS011;13001;51.968;5.918;2023-02-11T15:32:11;469.30;;;433.23;;
22768;SDS011;13001;51.968;5.918;2023-02-11T15:34:35;457.10;;;422.27;;
22768;SDS011;13001;51.968;5.918;2023-02-11T15:37:02;439.37;;;406.40;;
22768;SDS011;13001;51.968;5.918;2023-02-11T15:39:40;450.83;;;416.62;;
22768;SDS011;13001;51.968;5.918;2023-02-11T15:44:45;451.25;;;417.00;;
22768;SDS011;13001;51.968;5.918;2023-02-11T15:47:16;463.93;;;428.30;;
22768;SDS011;13001;51.968;5.918;2023-02-11T15:49:46;448.67;;;414.35;;